Time;durP1;ratioP1;P1;durP2;ratioP2;P2;SDS_P1;SDS_P2;PMS_P1;PMS_P2;Temp;Humidity;BMP_temperature;BMP_pressure;BME280_temperature;BME280_humidity;BME280_pressure;Samples;Min_cycle;Max_cycle;Signal;HPM_P1;HPM_P2
2023/10/10 00:02:18;;;;;;;27.85;20.63;;;;;;;13.26;100.00;102027.53;5037698;28;20029;-48
2023/10/10 00:04:47;;;;;;;26.58;21.13;;;;;;;13.22;100.00;102022.53;5034080;28;20045;-48
2023/10/10 00:07:18;;;;;;;26.08;21.33;;;;;;;13.24;100.00;102032.13;5039188;28;20026;-49
2023/10/10 00:09:45;;;;;;;25.65;21.95;;;;;;;13.23;100.00;102032.25;5037086;28;20126;-47
2023/10/10 00:12:19;;;;;;;28.40;23.23;;;;;;;13.21;100.00;102023.50;5032470;28;20022;-48
2023/10/10 00:14:50;;;;;;;25.30;22.38;;;;;;;13.22;100.00;102027.84;5032561;28;20079;-50
2023/10/10 00:17:16;;;;;;;29.42;21.95;;;;;;;13.19;100.00;102034.28;5034667;28;20119;-48
2023/10/10 00:19:54;;;;;;;25.92;22.38;;;;;;;13.18;100.00;102023.72;5032587;28;20426;-48
2023/10/10 00:22:36;;;;;;;29.95;22.88;;;;;;;13.16;100.00;102026.47;5036639;28;20021;-48
2023/10/10 00:25:04;;;;;;;25.67;21.60;;;;;;;13.14;100.00;102023.91;5036260;28;20138;-48
2023/10/10 00:27:31;;;;;;;27.10;22.65;;;;;;;13.13;100.00;102019.53;5035041;28;20025;-48
2023/10/10 00:30:03;;;;;;;28.10;23.50;;;;;;;13.11;100.00;102026.78;5036213;28;20017;-48
2023/10/10 00:32:35;;;;;;;32.30;23.95;;;;;;;13.10;100.00;102022.41;5032524;28;20034;-47
2023/10/10 00:35:02;;;;;;;28.92;22.58;;;;;;;13.10;100.00;102027.72;5033335;28;20040;-48
2023/10/10 00:37:34;;;;;;;26.95;23.88;;;;;;;13.08;100.00;102023.47;5031958;28;20017;-47
2023/10/10 00:40:07;;;;;;;28.92;22.52;;;;;;;13.06;100.00;102025.41;5034801;28;20056;-48
2023/10/10 00:42:41;;;;;;;34.03;24.02;;;;;;;13.04;100.00;102022.84;5033702;28;20432;-49
2023/10/10 00:45:15;;;;;;;26.42;22.02;;;;;;;13.01;100.00;102008.88;5033737;28;20037;-48
2023/10/10 00:47:50;;;;;;;31.02;22.88;;;;;;;13.01;100.00;102014.19;5034038;28;20545;-49
2023/10/10 00:50:18;;;;;;;28.55;23.27;;;;;;;13.01;100.00;102017.72;5032943;28;20022;-48
2023/10/10 00:52:52;;;;;;;27.73;23.43;;;;;;;12.99;100.00;102014.31;5032863;28;20132;-48
2023/10/10 00:55:24;;;;;;;29.05;25.17;;;;;;;12.99;100.00;102011.63;5036496;28;20055;-48
2023/10/10 00:57:53;;;;;;;26.65;23.08;;;;;;;12.91;100.00;102008.63;5034749;28;20131;-49
2023/10/10 01:00:20;;;;;;;28.27;24.40;;;;;;;12.96;100.00;102017.16;5034072;28;20036;-47
2023/10/10 01:02:46;;;;;;;27.67;22.05;;;;;;;12.93;100.00;102006.72;5030999;28;20295;-48
2023/10/10 01:05:15;;;;;;;26.42;22.73;;;;;;;12.91;100.00;102000.63;5034438;28;20025;-47
2023/10/10 01:07:44;;;;;;;27.77;20.85;;;;;;;12.92;100.00;101999.66;5032408;28;20087;-48
2023/10/10 01:10:16;;;;;;;28.48;23.23;;;;;;;12.89;100.00;101997.19;5032092;28;20539;-48
2023/10/10 01:12:43;;;;;;;31.08;23.80;;;;;;;12.89;100.00;101986.53;5034943;28;20026;-48
2023/10/10 01:15:24;;;;;;;28.48;23.45;;;;;;;12.87;100.00;101989.31;5035493;28;20087;-47
2023/10/10 01:17:50;;;;;;;29.15;23.73;;;;;;;12.85;100.00;101990.38;5034947;28;20227;-47
2023/10/10 01:20:19;;;;;;;29.70;23.75;;;;;;;12.83;100.00;101987.81;5030343;28;20543;-47
2023/10/10 01:22:47;;;;;;;29.35;24.73;;;;;;;12.84;100.00;101981.53;5035195;28;20487;-48
2023/10/10 01:28:02;;;;;;;29.10;25.88;;;;;;;12.81;100.00;101979.06;5030532;28;20029;-48
2023/10/10 01:33:14;;;;;;;29.33;24.65;;;;;;;12.79;100.00;101975.66;5036504;28;20036;-47
2023/10/10 01:35:44;;;;;;;31.90;24.35;;;;;;;12.80;100.00;101979.19;5034856;28;20491;-48
2023/10/10 01:38:35;;;;;;;;;;;;;;;12.87;100.00;101972.44;5034373;28;20476;-48
2023/10/10 01:41:48;;;;;;;29.58;24.65;;;;;;;12.80;100.00;101968.50;5022453;28;19913;-48
2023/10/10 01:43:53;;;;;;;33.85;27.00;;;;;;;12.78;100.00;101960.63;5033534;28;20033;-48
2023/10/10 01:46:27;;;;;;;31.55;25.52;;;;;;;12.77;100.00;101956.22;5033864;28;20083;-48
2023/10/10 01:49:02;;;;;;;32.90;26.08;;;;;;;12.78;100.00;101956.13;5033119;28;20017;-49
2023/10/10 01:51:34;;;;;;;32.63;25.85;;;;;;;12.75;100.00;101950.16;5031327;28;20018;-48
2023/10/10 01:54:06;;;;;;;30.13;25.92;;;;;;;12.72;100.00;101951.22;5030066;28;20039;-48
2023/10/10 01:56:31;;;;;;;29.73;25.75;;;;;;;12.73;100.00;101949.41;5030297;28;20020;-47
2023/10/10 01:58:56;;;;;;;30.10;25.98;;;;;;;12.71;100.00;101949.50;5031330;28;20025;-48
2023/10/10 02:01:24;;;;;;;33.20;27.75;;;;;;;12.69;100.00;101945.22;5033890;28;20026;-48
2023/10/10 02:03:51;;;;;;;34.97;27.35;;;;;;;12.69;100.00;101942.56;5033999;28;20025;-48
2023/10/10 02:06:28;;;;;;;35.60;27.77;;;;;;;12.68;100.00;101940.88;5030735;28;20476;-48
2023/10/10 02:09:11;;;;;;;34.65;29.50;;;;;;;12.70;100.00;101936.28;5035711;28;20072;-47
2023/10/10 02:11:38;;;;;;;34.30;28.05;;;;;;;12.66;100.00;101937.47;5031865;28;20022;-48
2023/10/10 02:14:11;;;;;;;41.60;29.05;;;;;;;12.65;100.00;101941.09;5032207;28;20021;-47
2023/10/10 02:16:40;;;;;;;32.13;27.98;;;;;;;12.61;100.00;101926.25;5032282;28;20118;-47
2023/10/10 02:19:15;;;;;;;;;;;;;;;12.71;100.00;101927.34;5034541;28;20494;-48
2023/10/10 02:21:47;;;;;;;39.30;28.67;;;;;;;12.65;100.00;101930.41;5030747;28;19917;-47
2023/10/10 02:24:38;;;;;;;37.63;28.23;;;;;;;12.61;100.00;101926.25;5034992;28;20025;-48
2023/10/10 02:27:06;;;;;;;34.13;27.83;;;;;;;12.59;100.00;101924.56;5033538;28;20498;-48
2023/10/10 02:32:42;;;;;;;34.92;28.83;;;;;;;12.56;100.00;101916.75;5031518;28;20479;-47
2023/10/10 02:34:42;;;;;;;36.15;29.60;;;;;;;12.56;100.00;101914.09;5041950;28;20045;-50
2023/10/10 02:37:41;;;;;;;36.78;28.13;;;;;;;12.56;100.00;101905.25;5034024;28;20693;-48
2023/10/10 02:40:15;;;;;;;37.78;29.77;;;;;;;12.52;100.00;101909.06;5031715;28;20057;-49
2023/10/10 02:42:49;;;;;;;34.85;28.77;;;;;;;12.53;100.00;101911.63;5032473;28;20435;-49
2023/10/10 02:45:15;;;;;;;34.78;28.50;;;;;;;12.53;100.00;101910.78;5030634;28;20025;-48
2023/10/10 02:47:46;;;;;;;34.38;28.08;;;;;;;12.49;100.00;101918.13;5034539;28;20447;-49
2023/10/10 02:50:38;;;;;;;35.40;29.35;;;;;;;12.49;100.00;101911.94;5033664;28;20061;-48
2023/10/10 02:53:01;;;;;;;40.78;29.70;;;;;;;12.48;100.00;101913.75;5032089;28;20116;-48
2023/10/10 02:55:33;;;;;;;40.65;29.25;;;;;;;12.47;100.00;101912.03;5032556;28;20106;-48
2023/10/10 02:57:59;;;;;;;38.15;29.35;;;;;;;12.48;100.00;101910.25;5034084;28;20131;-50
2023/10/10 03:02:52;;;;;;;36.28;29.08;;;;;;;12.45;100.00;101911.28;5031866;28;20087;-47
2023/10/10 03:05:20;;;;;;;40.00;31.08;;;;;;;12.45;100.00;101908.63;5030962;28;20032;-49
2023/10/10 03:07:52;;;;;;;36.95;29.77;;;;;;;12.39;100.00;101904.59;5035509;28;20091;-48
2023/10/10 03:10:35;;;;;;;41.22;30.65;;;;;;;12.42;100.00;101908.00;5031231;28;20482;-48
2023/10/10 03:15:52;;;;;;;42.33;30.77;;;;;;;12.40;100.00;101908.94;5031241;28;20494;-48
2023/10/10 03:18:28;;;;;;;38.22;31.42;;;;;;;12.43;100.00;101907.03;5035486;28;20079;-48
2023/10/10 03:23:53;;;;;;;38.50;31.55;;;;;;;12.42;100.00;101913.31;5035406;28;20036;-48
2023/10/10 03:26:51;;;;;;;42.08;32.45;;;;;;;12.40;100.00;101911.59;5039025;28;20029;-47
2023/10/10 03:29:10;;;;;;;36.83;30.17;;;;;;;12.38;100.00;101905.53;5035130;28;20152;-49
2023/10/10 03:31:42;;;;;;;43.63;34.40;;;;;;;12.39;100.00;101904.59;5035876;28;20017;-48
2023/10/10 03:34:19;;;;;;;43.05;32.80;;;;;;;12.41;100.00;101912.47;5038713;28;20034;-48
2023/10/10 03:36:45;;;;;;;42.72;34.05;;;;;;;12.37;100.00;101914.50;5034295;28;20025;-49
2023/10/10 05:23:34;;;;;;;34.72;28.95;;;;;;;12.05;100.00;101859.84;5039724;28;20490;-48
2023/10/10 05:26:00;;;;;;;36.10;28.58;;;;;;;12.03;100.00;101857.28;5039709;28;20430;-48
2023/10/10 05:28:30;;;;;;;32.72;28.58;;;;;;;12.00;100.00;101850.34;5038838;28;20120;-48
2023/10/10 05:30:57;;;;;;;34.47;27.65;;;;;;;11.99;100.00;101858.44;5039244;28;20026;-48
2023/10/10 05:33:26;;;;;;;33.95;27.45;;;;;;;11.97;100.00;101855.91;5037533;28;20063;-49
2023/10/10 05:35:57;;;;;;;34.90;28.20;;;;;;;11.95;100.00;101846.28;5039795;28;20067;-48
2023/10/10 05:38:22;;;;;;;39.72;26.63;;;;;;;11.94;100.00;101848.13;5036662;28;20087;-47
2023/10/10 05:40:48;;;;;;;32.15;26.27;;;;;;;11.93;100.00;101851.72;5035889;28;20033;-48
2023/10/10 05:43:17;;;;;;;33.28;25.70;;;;;;;11.90;100.00;101843.91;5037921;28;20121;-48
2023/10/10 05:45:43;;;;;;;32.30;24.73;;;;;;;11.89;100.00;101839.53;5035939;28;20108;-48
2023/10/10 05:48:09;;;;;;;34.67;25.80;;;;;;;11.88;100.00;101848.47;5039150;28;20060;-47
2023/10/10 05:50:35;;;;;;;32.83;25.52;;;;;;;11.84;100.00;101845.16;5034246;28;20075;-48
2023/10/10 05:53:01;;;;;;;34.03;24.58;;;;;;;11.84;100.00;101847.84;5040534;28;20041;-48
2023/10/10 05:55:33;;;;;;;32.95;23.35;;;;;;;11.84;100.00;101853.16;5035402;28;20140;-48
2023/10/10 05:58:05;;;;;;;28.52;23.98;;;;;;;11.83;100.00;101851.44;5038601;28;20029;-48
2023/10/10 06:00:36;;;;;;;34.60;24.20;;;;;;;11.83;100.00;101850.59;5032773;28;20383;-48
2023/10/10 06:03:02;;;;;;;29.88;24.27;;;;;;;11.80;100.00;101846.31;5037147;28;20021;-48
2023/10/10 06:05:29;;;;;;;31.70;23.50;;;;;;;11.80;100.00;101837.47;5036276;28;20040;-47
2023/10/10 06:07:55;;;;;;;27.88;22.92;;;;;;;11.79;100.00;101841.09;5037200;28;20029;-48
2023/10/10 06:10:20;;;;;;;29.80;22.73;;;;;;;11.79;100.00;101841.09;5035833;28;20028;-48
2023/10/10 06:12:47;;;;;;;31.25;22.70;;;;;;;11.78;100.00;101844.72;5037825;28;20028;-47
2023/10/10 06:15:19;;;;;;;27.80;22.90;;;;;;;11.77;100.00;101835.00;5034414;28;20048;-48
2023/10/10 06:17:45;;;;;;;30.50;22.27;;;;;;;11.78;100.00;101834.06;5035654;28;20029;-47
2023/10/10 06:20:16;;;;;;;28.35;22.30;;;;;;;11.77;100.00;101843.84;5037483;28;20412;-47
2023/10/10 11:47:07;;;;;;;13.88;9.10;;;;;;;23.31;63.19;101734.09;5027207;28;20405;-48
2023/10/10 11:49:32;;;;;;;14.52;8.45;;;;;;;23.33;63.48;101732.91;5021037;28;20095;-48
2023/10/10 11:51:58;;;;;;;12.05;8.15;;;;;;;23.37;61.20;101736.94;5014173;27;20029;-48
2023/10/10 11:54:25;;;;;;;15.85;8.07;;;;;;;23.37;64.03;101736.94;5012163;28;20026;-49
2023/10/10 11:56:51;;;;;;;13.55;8.30;;;;;;;23.34;62.56;101731.84;5013521;28;20050;-48
2023/10/10 11:59:17;;;;;;;17.23;8.30;;;;;;;23.28;61.28;101732.56;5011753;28;20083;-50
2023/10/10 12:01:51;;;;;;;12.20;7.07;;;;;;;23.21;61.47;101726.19;5009690;28;20026;-47
2023/10/10 12:04:32;;;;;;;12.93;8.02;;;;;;;23.12;62.25;101728.13;5013181;28;20047;-50
2023/10/10 12:07:01;;;;;;;11.65;7.65;;;;;;;23.03;63.01;101727.31;5013119;28;20159;-51
2023/10/10 12:09:28;;;;;;;14.02;7.90;;;;;;;22.95;61.64;101726.47;5013846;28;20030;-47
2023/10/10 12:12:02;;;;;;;19.02;8.60;;;;;;;22.80;61.25;101715.56;5016644;28;20029;-48
2023/10/10 12:14:31;;;;;;;15.73;8.75;;;;;;;22.69;63.18;101712.22;5016048;28;20030;-47
2023/10/10 12:16:58;;;;;;;13.43;7.65;;;;;;;22.67;62.50;101718.84;5032235;28;20019;-47
2023/10/10 12:19:25;;;;;;;15.07;8.43;;;;;;;22.62;61.63;101716.66;5037066;28;20348;-48
2023/10/10 12:21:51;;;;;;;16.75;8.00;;;;;;;22.57;60.83;101712.81;5012765;28;20499;-51
2023/10/10 12:24:17;;;;;;;11.00;7.43;;;;;;;22.57;63.64;101710.94;5010845;28;20323;-47
2023/10/10 12:26:42;;;;;;;12.35;7.18;;;;;;;22.48;63.50;101706.56;5013187;28;20052;-47
2023/10/10 12:29:10;;;;;;;16.10;7.97;;;;;;;22.44;62.48;101703.38;5012345;28;20076;-48
2023/10/10 12:31:36;;;;;;;14.95;8.30;;;;;;;22.32;61.94;101694.78;5015845;28;20279;-49
2023/10/10 12:34:02;;;;;;;12.77;7.38;;;;;;;22.30;61.83;101691.41;5010343;28;20038;-47
2023/10/10 12:36:32;;;;;;;14.75;7.40;;;;;;;22.25;62.30;101698.31;5014097;28;20458;-48
2023/10/10 12:38:59;;;;;;;14.88;7.53;;;;;;;22.22;62.02;101694.13;5012660;28;20037;-47
2023/10/10 12:41:28;;;;;;;13.68;6.68;;;;;;;22.20;62.25;101692.59;5013793;28;20052;-46
2023/10/10 12:43:53;;;;;;;10.55;6.53;;;;;;;22.13;60.69;101693.31;5010148;28;20475;-47
2023/10/10 12:46:20;;;;;;;11.93;6.63;;;;;;;22.13;60.12;101689.72;5008307;28;20054;-47
2023/10/10 12:48:46;;;;;;;10.18;6.68;;;;;;;22.13;60.84;101687.88;4998957;28;20810;-48
2023/10/10 12:51:13;;;;;;;12.55;6.13;;;;;;;22.10;59.33;101684.66;5006050;28;20057;-47
2023/10/10 12:53:39;;;;;;;19.02;6.65;;;;;;;22.11;58.62;101686.34;4997140;28;20054;-47
2023/10/10 12:56:12;;;;;;;9.90;5.78;;;;;;;22.10;59.84;101684.66;4998568;28;20034;-47
2023/10/10 12:58:43;;;;;;;13.38;6.03;;;;;;;22.13;61.83;101684.31;4999896;28;20038;-47
2023/10/10 13:01:14;;;;;;;11.20;5.63;;;;;;;22.12;63.76;101675.38;4997854;28;20105;-47
2023/10/10 13:03:42;;;;;;;11.40;5.78;;;;;;;22.16;60.18;101681.28;5001543;28;20071;-47
2023/10/10 13:06:08;;;;;;;13.70;6.13;;;;;;;22.22;62.33;101682.47;4996018;28;20061;-47
2023/10/10 13:09:08;;;;;;;14.07;6.10;;;;;;;22.27;63.28;101675.50;4997895;28;20022;-49
2023/10/10 13:11:43;;;;;;;15.15;6.03;;;;;;;22.29;61.32;101684.31;4998369;28;20056;-48
2023/10/10 13:14:09;;;;;;;11.25;6.22;;;;;;;22.34;61.04;101681.06;4995509;28;20026;-48
2023/10/10 13:19:13;;;;;;;13.02;5.68;;;;;;;22.43;61.92;101674.63;4999787;28;20044;-48
2023/10/10 13:21:39;;;;;;;;;;;;;;;22.49;64.19;101683.91;4999618;28;20392;-47
2023/10/10 13:24:09;;;;;;;11.85;5.63;;;;;;;22.45;59.87;101685.25;5000520;28;19924;-46
2023/10/10 13:26:38;;;;;;;10.20;5.40;;;;;;;22.44;58.81;101675.47;4998625;28;20034;-47
2023/10/10 13:29:07;;;;;;;12.95;5.43;;;;;;;22.44;60.34;101670.06;4994094;28;20027;-47
2023/10/10 13:31:33;;;;;;;;;;;;;;;22.53;63.24;101671.69;5001439;28;20385;-47
2023/10/10 13:33:59;;;;;;;11.25;5.18;;;;;;;22.51;60.28;101676.44;4999914;28;19979;-47
2023/10/10 13:36:25;;;;;;;11.57;5.10;;;;;;;22.54;62.55;101674.22;4996896;28;20109;-48
2023/10/10 13:38:57;;;;;;;12.75;5.30;;;;;;;22.56;58.83;101676.75;4999069;28;20060;-46
2023/10/10 13:41:23;;;;;;;11.38;5.40;;;;;;;22.61;58.74;101677.06;4998608;28;20286;-46
2023/10/10 13:43:51;;;;;;;10.30;5.00;;;;;;;22.64;59.76;101671.28;4980405;28;20034;-47
2023/10/10 13:46:23;;;;;;;10.18;4.82;;;;;;;22.63;60.42;101671.47;4998415;28;20046;-48
2023/10/10 13:48:49;;;;;;;12.20;5.40;;;;;;;22.63;60.75;101671.47;4998281;28;20026;-47
2023/10/10 13:51:15;;;;;;;10.95;5.57;;;;;;;22.71;62.43;101669.56;4997045;28;20037;-46
2023/10/10 13:53:43;;;;;;;12.45;5.18;;;;;;;22.78;60.65;101664.28;4998922;28;20030;-47
2023/10/10 13:56:10;;;;;;;15.35;4.75;;;;;;;22.83;60.42;101661.03;4999356;28;20033;-47
2023/10/10 13:58:36;;;;;;;11.43;4.82;;;;;;;22.88;61.85;101661.34;4996325;28;20506;-48
2023/10/10 14:03:38;;;;;;;7.65;4.55;;;;;;;23.00;60.69;101653.63;4998406;28;20140;-50
2023/10/10 14:06:04;;;;;;;9.27;4.80;;;;;;;22.99;58.78;101650.09;5002569;28;20018;-47
2023/10/10 14:08:30;;;;;;;12.48;4.95;;;;;;;23.02;59.21;101652.44;4998530;28;20044;-48
2023/10/10 14:10:59;;;;;;;11.80;5.47;;;;;;;23.02;59.27;101648.91;4995104;28;20041;-47
2023/10/10 14:13:25;;;;;;;;;;;;;;;23.12;62.52;101656.84;4995547;28;20476;-48
2023/10/10 14:15:54;;;;;;;12.07;5.03;;;;;;;23.07;56.84;101649.25;4992657;28;20000;-47
2023/10/10 14:18:46;;;;;;;13.27;5.38;;;;;;;23.09;61.23;101641.75;4996177;28;20021;-48
2023/10/10 14:21:11;;;;;;;8.43;4.38;;;;;;;22.98;58.56;101640.28;4992822;28;20083;-48
2023/10/10 14:23:41;;;;;;;10.15;4.45;;;;;;;23.02;57.45;101651.63;4996981;28;20113;-49
2023/10/10 14:26:13;;;;;;;9.93;4.80;;;;;;;22.98;57.21;101647.56;4994219;28;20038;-48
2023/10/10 14:28:41;;;;;;;9.95;4.53;;;;;;;22.94;58.79;101638.97;4995974;28;20039;-47
2023/10/10 14:31:12;;;;;;;9.98;4.70;;;;;;;22.96;59.79;101636.06;5010599;28;20026;-47
2023/10/10 14:33:39;;;;;;;9.38;4.88;;;;;;;22.92;54.99;101636.44;4999438;28;20466;-47
2023/10/10 14:36:04;;;;;;;8.52;4.20;;;;;;;22.92;58.49;101625.59;4996362;28;20022;-47
2023/10/10 14:38:31;;;;;;;12.52;4.22;;;;;;;22.96;54.92;101619.81;4994854;28;20042;-47
2023/10/10 14:40:57;;;;;;;8.38;4.50;;;;;;;22.95;54.99;101621.69;5000032;28;20400;-47
2023/10/10 14:43:22;;;;;;;10.05;4.70;;;;;;;22.89;57.04;101612.41;4996201;28;20053;-47
2023/10/10 14:45:48;;;;;;;13.07;4.70;;;;;;;22.92;54.59;101616.63;4990343;28;20528;-47
2023/10/10 14:48:20;;;;;;;16.88;4.90;;;;;;;22.91;54.47;101617.63;4995244;28;20117;-47
2023/10/10 14:50:52;;;;;;;11.80;4.70;;;;;;;22.90;55.74;101618.69;4999242;28;20062;-47
2023/10/10 14:53:22;;;;;;;8.82;4.32;;;;;;;22.87;53.79;101611.75;5004688;28;20143;-47
2023/10/10 14:55:48;;;;;;;9.32;4.90;;;;;;;22.86;53.77;101606.50;5011085;28;20075;-47
2023/10/10 14:58:13;;;;;;;18.55;4.72;;;;;;;22.81;53.82;101606.22;5002929;28;20084;-47
2023/10/10 15:00:41;;;;;;;14.15;4.95;;;;;;;22.78;53.87;101612.81;4993905;28;20042;-46
2023/10/10 15:03:15;;;;;;;8.52;4.57;;;;;;;22.73;54.59;101605.25;4993661;28;20033;-47
2023/10/10 15:05:47;;;;;;;11.93;4.40;;;;;;;22.68;57.06;101601.38;4997486;28;20399;-47
2023/10/10 15:08:20;;;;;;;8.65;4.50;;;;;;;22.61;54.79;101597.72;4998736;28;20034;-47
2023/10/10 15:10:47;;;;;;;9.57;4.40;;;;;;;22.56;54.07;101598.22;4994627;28;20532;-47
2023/10/10 15:13:16;;;;;;;13.35;4.55;;;;;;;22.50;55.19;101597.09;4996496;28;20072;-47
2023/10/10 15:15:48;;;;;;;7.90;5.00;;;;;;;22.45;55.75;101593.22;4995880;28;20056;-48
2023/10/10 15:18:17;;;;;;;11.25;4.72;;;;;;;22.42;56.52;101593.59;4997952;28;20045;-48
2023/10/10 15:20:46;;;;;;;8.15;4.57;;;;;;;22.37;57.72;101587.88;4993183;28;20036;-48
2023/10/10 15:23:15;;;;;;;11.88;4.85;;;;;;;22.30;54.42;101594.00;4995932;28;20049;-48
2023/10/10 15:25:41;;;;;;;14.98;5.57;;;;;;;22.24;56.90;101588.41;4994468;28;20470;-45
2023/10/10 15:28:07;;;;;;;12.50;5.18;;;;;;;22.15;56.69;101584.91;4993599;28;20109;-47
2023/10/10 15:30:35;;;;;;;8.90;4.70;;;;;;;22.10;57.32;101582.72;4996104;28;20113;-46
2023/10/10 15:33:05;;;;;;;12.13;4.97;;;;;;;22.06;58.04;101578.66;4994841;28;20549;-46
2023/10/10 15:35:30;;;;;;;11.48;4.72;;;;;;;21.94;55.86;101580.91;4995581;28;20026;-50
2023/10/10 15:37:56;;;;;;;9.07;4.72;;;;;;;21.89;53.91;101580.59;4995725;28;20440;-47
2023/10/10 15:40:21;;;;;;;8.10;4.73;;;;;;;21.81;56.72;101572.50;4997137;28;20088;-47
2023/10/10 15:42:51;;;;;;;9.83;4.30;;;;;;;21.72;56.69;101571.69;4995079;28;20282;-48
2023/10/10 15:45:22;;;;;;;12.77;4.85;;;;;;;21.66;57.58;101571.53;4997994;28;20289;-48
2023/10/10 15:47:54;;;;;;;11.32;4.90;;;;;;;21.51;57.86;101566.84;4993561;28;20120;-46
2023/10/10 15:50:21;;;;;;;10.82;4.88;;;;;;;21.48;57.35;101571.75;4998416;28;20038;-48
2023/10/10 15:52:50;;;;;;;11.13;5.30;;;;;;;21.41;58.32;101574.25;4995477;28;20100;-47
2023/10/10 15:55:23;;;;;;;8.73;5.28;;;;;;;21.30;60.64;101566.50;4985131;28;20029;-48
2023/10/10 15:57:52;;;;;;;13.43;5.10;;;;;;;21.24;59.61;101566.16;4997032;28;20122;-48
2023/10/10 16:00:20;;;;;;;7.43;4.70;;;;;;;21.15;59.71;101559.09;4998258;28;20496;-47
2023/10/10 16:02:48;;;;;;;11.70;4.90;;;;;;;21.11;61.01;101555.03;4995722;28;20042;-47
2023/10/10 16:05:16;;;;;;;9.80;5.03;;;;;;;20.99;60.48;101564.50;4996774;28;20036;-47
2023/10/10 16:07:46;;;;;;;12.03;4.90;;;;;;;20.86;60.97;101557.72;4997525;28;20030;-48
2023/10/10 16:10:12;;;;;;;9.32;4.70;;;;;;;20.75;60.74;101557.22;4995816;28;20125;-48
2023/10/10 16:12:37;;;;;;;12.07;5.18;;;;;;;20.64;60.90;101553.00;4996538;28;20334;-47
2023/10/10 16:15:05;;;;;;;10.63;5.23;;;;;;;20.62;61.25;101547.72;4994558;28;20033;-47
2023/10/10 16:17:30;;;;;;;9.60;4.55;;;;;;;20.54;61.27;101554.97;4996270;28;20265;-48
2023/10/10 16:19:56;;;;;;;12.50;4.70;;;;;;;20.41;62.48;101548.19;4994937;28;20033;-47
2023/10/10 16:22:21;;;;;;;10.35;4.70;;;;;;;20.37;62.53;101546.84;4998430;28;20072;-48
2023/10/10 16:24:52;;;;;;;13.80;5.10;;;;;;;20.29;62.61;101547.66;4997838;28;20406;-47
2023/10/10 16:27:17;;;;;;;13.23;4.97;;;;;;;20.22;62.65;101552.03;4998714;28;20037;-47
2023/10/10 16:29:43;;;;;;;13.10;5.35;;;;;;;20.13;62.11;101551.16;4996163;28;20105;-47
2023/10/10 16:32:15;;;;;;;12.40;4.72;;;;;;;20.08;63.38;101547.25;4999495;28;20384;-48
2023/10/10 16:34:41;;;;;;;16.33;5.30;;;;;;;19.96;62.86;101549.41;5001249;28;20018;-47
2023/10/10 16:37:06;;;;;;;8.15;4.80;;;;;;;19.89;63.30;101559.16;4996781;28;20026;-47
2023/10/10 16:39:32;;;;;;;10.67;5.53;;;;;;;19.80;63.27;101554.72;4998064;28;20028;-47
2023/10/10 16:41:58;;;;;;;17.73;5.45;;;;;;;19.75;64.26;101550.66;4998278;28;20285;-48
2023/10/10 16:44:24;;;;;;;8.00;4.57;;;;;;;19.62;63.88;101555.63;4997887;28;20041;-47
2023/10/10 16:46:49;;;;;;;13.35;4.93;;;;;;;19.59;64.35;101551.38;4998118;28;20042;-47
2023/10/10 16:49:15;;;;;;;14.27;5.85;;;;;;;19.53;64.98;101553.84;4997393;28;20029;-47
2023/10/10 16:51:40;;;;;;;10.98;4.65;;;;;;;19.44;65.46;101544.06;4998814;28;20117;-48
2023/10/10 16:54:06;;;;;;;12.73;5.30;;;;;;;19.40;65.53;101544.38;4995975;28;20026;-48
2023/10/10 16:56:34;;;;;;;11.07;5.53;;;;;;;19.26;65.97;101553.00;4984963;28;20328;-47
2023/10/10 16:58:59;;;;;;;15.13;6.10;;;;;;;19.19;65.70;101550.09;4994203;28;20034;-47
2023/10/10 17:01:26;;;;;;;15.23;5.32;;;;;;;19.17;66.32;101549.41;4994805;28;20035;-48
2023/10/10 17:03:55;;;;;;;10.68;4.78;;;;;;;19.07;65.77;101543.28;4987359;28;20054;-47
2023/10/10 17:06:26;;;;;;;10.98;5.00;;;;;;;18.98;67.15;101536.13;4997628;28;20026;-47
2023/10/10 17:08:59;;;;;;;12.07;4.97;;;;;;;18.90;68.24;101539.63;4995792;28;20030;-47
2023/10/10 17:11:24;;;;;;;11.95;4.95;;;;;;;18.81;67.91;101535.97;4992440;28;20084;-49
2023/10/10 17:13:50;;;;;;;10.45;5.05;;;;;;;18.75;68.08;101543.81;4996816;28;20027;-48
2023/10/10 17:16:25;;;;;;;8.52;5.10;;;;;;;18.68;68.27;101538.19;4994739;28;20022;-47
2023/10/10 17:18:52;;;;;;;19.13;5.40;;;;;;;18.62;68.30;101534.28;4994544;28;20026;-47
2023/10/10 17:21:18;;;;;;;10.77;5.45;;;;;;;18.59;68.25;101531.06;4996418;28;20029;-48
2023/10/10 17:23:48;;;;;;;14.55;4.70;;;;;;;18.51;68.59;101529.13;4994456;28;20026;-48
2023/10/10 17:26:15;;;;;;;12.55;4.95;;;;;;;18.43;69.23;101529.88;5000194;28;20058;-47
2023/10/10 17:28:41;;;;;;;12.48;4.82;;;;;;;18.38;69.32;101529.50;4995215;28;20031;-50
2023/10/10 17:31:07;;;;;;;14.23;5.35;;;;;;;18.30;69.36;101532.97;4997748;28;20041;-48
2023/10/10 17:33:39;;;;;;;10.65;4.40;;;;;;;18.24;70.73;101527.34;4994913;28;20027;-47
2023/10/10 17:36:05;;;;;;;13.35;4.93;;;;;;;18.19;71.02;101532.34;4995804;28;20103;-48
2023/10/10 17:38:31;;;;;;;11.80;4.60;;;;;;;18.13;70.71;101528.38;4997265;28;20484;-48
2023/10/10 17:41:02;;;;;;;12.00;5.00;;;;;;;18.04;71.15;101526.59;5000898;28;20056;-49
2023/10/10 17:43:28;;;;;;;12.13;4.88;;;;;;;17.98;71.00;101519.97;4996444;28;20083;-48
2023/10/10 17:45:54;;;;;;;12.82;5.10;;;;;;;17.91;70.97;101517.03;4998200;28;20485;-48
2023/10/10 17:48:20;;;;;;;11.45;5.00;;;;;;;17.86;71.88;101518.47;4998536;28;20380;-50
2023/10/10 17:50:46;;;;;;;15.23;5.30;;;;;;;17.82;71.48;101525.97;4992752;28;20029;-49
2023/10/10 17:53:11;;;;;;;12.55;4.78;;;;;;;17.73;72.05;101516.94;4997017;28;20060;-49
2023/10/10 17:55:41;;;;;;;10.98;5.45;;;;;;;17.68;72.34;101515.72;4993187;28;20038;-49
2023/10/10 17:58:07;;;;;;;11.45;4.60;;;;;;;17.65;72.22;101521.38;4996018;28;20029;-48
2023/10/10 18:00:33;;;;;;;10.95;4.97;;;;;;;17.56;72.60;101515.03;4994060;28;20054;-48
2023/10/10 18:03:00;;;;;;;12.25;4.95;;;;;;;17.50;72.49;101516.50;4995099;28;20465;-48
2023/10/10 18:05:26;;;;;;;14.38;5.25;;;;;;;17.47;73.30;101510.53;4992812;28;20377;-48
2023/10/10 18:07:51;;;;;;;12.88;6.05;;;;;;;17.42;73.47;101515.50;4998021;28;20036;-48
2023/10/10 18:10:19;;;;;;;11.55;5.45;;;;;;;17.35;73.34;101513.44;4997423;28;20494;-48
2023/10/10 18:12:45;;;;;;;9.30;4.93;;;;;;;17.33;74.30;101512.69;4992932;28;20029;-49
2023/10/10 18:15:11;;;;;;;8.35;4.63;;;;;;;17.27;74.48;101504.38;4995512;28;20033;-48
2023/10/10 18:17:37;;;;;;;10.73;4.90;;;;;;;17.23;74.73;101508.38;4996570;28;20399;-48
2023/10/10 18:20:14;;;;;;;10.98;5.43;;;;;;;17.17;74.77;101507.94;5013572;28;20027;-48
2023/10/10 18:22:44;;;;;;;13.15;4.85;;;;;;;17.15;75.01;101504.56;4993798;28;20030;-48
2023/10/10 18:25:10;;;;;;;9.57;4.90;;;;;;;17.09;75.21;101499.78;5002799;28;20068;-48
2023/10/10 18:27:35;;;;;;;14.70;5.00;;;;;;;17.04;75.21;101498.50;5004038;28;20061;-48
2023/10/10 18:30:00;;;;;;;9.50;4.38;;;;;;;17.03;75.54;101500.34;4996982;28;20037;-49
2023/10/10 18:32:27;;;;;;;11.25;4.90;;;;;;;17.00;76.05;101489.88;4995965;28;20030;-48
2023/10/10 18:34:53;;;;;;;9.82;4.47;;;;;;;16.96;76.46;101486.66;4999357;28;20380;-48
2023/10/10 18:37:18;;;;;;;10.20;4.78;;;;;;;16.95;76.57;101489.47;4995782;28;20027;-49
2023/10/10 18:39:43;;;;;;;13.98;5.13;;;;;;;16.93;76.86;101492.31;4993882;28;20037;-48
2023/10/10 18:42:09;;;;;;;10.17;4.47;;;;;;;16.90;77.06;101492.59;4993049;28;20022;-48
2023/10/10 18:44:35;;;;;;;10.55;4.40;;;;;;;16.88;77.22;101493.72;4993700;28;20292;-47
2023/10/10 18:47:01;;;;;;;9.55;4.80;;;;;;;16.87;77.79;101489.34;4997576;28;20034;-52
2023/10/10 18:49:27;;;;;;;13.98;4.20;;;;;;;16.86;78.30;101490.34;5000707;28;20044;-48
2023/10/10 18:51:53;;;;;;;8.70;4.25;;;;;;;16.83;78.08;101486.91;4994280;28;20026;-49
2023/10/10 18:54:19;;;;;;;9.95;4.80;;;;;;;16.84;78.33;101495.81;4999460;28;20022;-50